createdAt,value
2022-10-12T00:01:20.778Z,3.75
2022-10-12T00:03:48.252Z,3.90
2022-10-12T00:06:21.494Z,4.13
2022-10-12T00:08:50.494Z,3.53
2022-10-12T00:11:25.744Z,3.90
2022-10-12T00:13:53.145Z,3.88
2022-10-12T00:16:22.233Z,4.65
2022-10-12T00:18:56.626Z,4.63
2022-10-12T00:21:25.381Z,4.28
2022-10-12T00:23:52.346Z,4.03
2022-10-12T00:26:21.825Z,4.07
2022-10-12T00:28:53.834Z,3.70
2022-10-12T00:31:21.254Z,3.30
2022-10-12T00:33:49.340Z,3.42
2022-10-12T00:36:28.294Z,4.40
2022-10-12T00:38:57.297Z,3.65
2022-10-12T00:41:27.822Z,3.63
2022-10-12T00:43:58.154Z,3.50
2022-10-12T00:46:45.235Z,4.28
2022-10-12T00:49:19.309Z,3.55
2022-10-12T00:51:51.424Z,3.45
2022-10-12T00:54:24.782Z,4.00
2022-10-12T00:56:54.416Z,3.20
2022-10-12T00:59:28.617Z,3.22
2022-10-12T01:01:56.394Z,3.20
2022-10-12T01:04:24.247Z,3.22
2022-10-12T01:06:52.221Z,3.60
2022-10-12T01:09:20.865Z,3.08
2022-10-12T01:11:48.219Z,2.97
2022-10-12T01:14:15.790Z,3.70
2022-10-12T01:17:00.678Z,3.28
2022-10-12T01:19:46.067Z,3.75
2022-10-12T01:22:19.053Z,3.40
2022-10-12T01:25:00.275Z,4.28
2022-10-12T01:28:09.535Z,4.13
2022-10-12T01:30:42.420Z,5.15
2022-10-12T01:33:27.698Z,5.30
2022-10-12T01:35:58.487Z,5.18
2022-10-12T01:38:43.547Z,5.00
2022-10-12T01:41:19.272Z,4.88
2022-10-12T01:43:46.804Z,4.35
2022-10-12T01:46:16.513Z,3.92
2022-10-12T01:48:54.303Z,4.40
2022-10-12T01:51:41.622Z,3.60
2022-10-12T01:54:39.931Z,3.65
2022-10-12T01:57:28.834Z,4.05
2022-10-12T02:00:09.482Z,3.88
2022-10-12T02:02:49.717Z,3.00
2022-10-12T02:05:45.228Z,3.22
2022-10-12T02:08:26.509Z,3.47
2022-10-12T02:11:13.530Z,3.40
2022-10-12T02:13:45.905Z,2.85
2022-10-12T02:16:17.350Z,3.78
2022-10-12T02:21:16.193Z,3.30
2022-10-12T02:23:45.737Z,3.10
2022-10-12T02:26:14.994Z,3.10
2022-10-12T02:28:44.639Z,3.88
2022-10-12T02:31:35.072Z,3.15
2022-10-12T02:34:14.647Z,4.00
2022-10-12T02:37:21.353Z,3.58
2022-10-12T02:39:54.715Z,3.55
2022-10-12T02:42:46.658Z,3.70
2022-10-12T02:45:22.845Z,3.85
2022-10-12T02:47:53.167Z,3.38
2022-10-12T02:50:22.695Z,3.40
2022-10-12T02:52:50.421Z,3.58
2022-10-12T02:55:17.733Z,3.28
2022-10-12T02:57:44.479Z,3.72
2022-10-12T03:00:12.103Z,3.88
2022-10-12T03:02:39.061Z,3.65
2022-10-12T03:05:06.332Z,3.70
2022-10-12T03:07:33.155Z,3.92
2022-10-12T03:10:00.009Z,3.72
2022-10-12T03:12:26.933Z,3.65
2022-10-12T03:14:53.842Z,4.32
2022-10-12T03:17:20.779Z,4.07
2022-10-12T03:19:47.655Z,3.72
2022-10-12T03:22:14.493Z,4.38
2022-10-12T03:24:41.564Z,4.05
2022-10-12T03:27:08.414Z,4.55
2022-10-12T03:29:35.286Z,4.63
2022-10-12T03:32:02.074Z,5.25
2022-10-12T03:34:29.001Z,4.50
2022-10-12T03:36:55.802Z,4.65
2022-10-12T03:39:22.951Z,4.78
2022-10-12T03:41:49.713Z,4.00
2022-10-12T03:44:16.635Z,4.25
2022-10-12T03:46:43.453Z,4.10
2022-10-12T03:49:10.373Z,4.57
2022-10-12T03:51:37.301Z,6.20
2022-10-12T03:54:04.349Z,25.00
2022-10-12T03:56:31.217Z,13.93
2022-10-12T03:58:58.152Z,9.15
2022-10-12T04:01:25.950Z,7.20
2022-10-12T04:03:52.882Z,6.28
2022-10-12T04:06:19.717Z,5.70
2022-10-12T04:08:50.605Z,6.60
2022-10-12T04:11:20.349Z,5.40
2022-10-12T04:13:47.432Z,4.13
2022-10-12T04:16:14.428Z,4.78
2022-10-12T04:18:41.316Z,4.90
2022-10-12T04:21:12.328Z,4.35
2022-10-12T04:23:39.417Z,5.78
2022-10-12T04:26:06.723Z,6.15
2022-10-12T04:28:33.943Z,12.48
2022-10-12T04:31:00.912Z,11.80
2022-10-12T04:33:27.849Z,7.40
2022-10-12T04:35:54.749Z,5.75
2022-10-12T04:38:21.735Z,7.07
2022-10-12T04:40:49.398Z,8.32
2022-10-12T04:43:17.721Z,9.25
2022-10-12T04:45:45.035Z,6.63
2022-10-12T04:48:11.846Z,7.28
2022-10-12T04:50:38.842Z,10.55
2022-10-12T04:53:06.073Z,13.23
2022-10-12T04:55:32.971Z,21.67
2022-10-12T04:58:00.889Z,8.57
2022-10-12T05:00:27.826Z,9.45
2022-10-12T05:02:54.726Z,5.55
2022-10-12T05:05:21.814Z,10.73
2022-10-12T05:07:48.756Z,8.73
2022-10-12T05:10:15.825Z,8.82
2022-10-12T05:12:43.110Z,10.27
2022-10-12T05:15:11.039Z,6.80
2022-10-12T05:17:38.420Z,6.22
2022-10-12T05:20:06.200Z,5.00
2022-10-12T05:22:33.179Z,4.88
2022-10-12T05:25:00.227Z,4.97
2022-10-12T05:27:27.249Z,4.50
2022-10-12T05:29:54.228Z,5.22
2022-10-12T05:32:21.251Z,5.82
2022-10-12T05:34:48.634Z,5.20
2022-10-12T05:37:15.623Z,5.13
2022-10-12T05:39:42.469Z,5.35
2022-10-12T05:42:09.435Z,4.97
2022-10-12T05:44:36.309Z,5.75
2022-10-12T05:47:03.425Z,7.72
2022-10-12T05:49:31.051Z,6.07
2022-10-12T05:51:57.923Z,6.78
2022-10-12T05:54:24.857Z,8.25
2022-10-12T05:56:51.893Z,7.35
2022-10-12T05:59:18.911Z,9.52
2022-10-12T06:01:45.820Z,8.85
2022-10-12T06:04:13.066Z,8.52
2022-10-12T06:06:39.906Z,9.02
2022-10-12T06:09:07.003Z,7.85
2022-10-12T06:11:36.400Z,8.07
2022-10-12T06:14:04.044Z,6.80
2022-10-12T06:16:30.904Z,5.63
2022-10-12T06:18:57.861Z,6.22
2022-10-12T06:21:39.990Z,5.40
2022-10-12T06:24:07.231Z,5.43
2022-10-12T06:26:34.139Z,6.50
2022-10-12T06:29:02.417Z,5.97
2022-10-12T06:31:29.661Z,4.70
2022-10-12T06:33:56.581Z,5.28
2022-10-12T06:36:23.986Z,4.70
2022-10-12T06:38:51.108Z,5.47
2022-10-12T06:41:18.123Z,4.38
2022-10-12T06:43:45.195Z,5.53
2022-10-12T06:46:12.178Z,5.47
2022-10-12T06:48:39.291Z,7.63
2022-10-12T06:51:06.440Z,8.05
2022-10-12T06:53:35.018Z,8.00
2022-10-12T06:56:11.569Z,9.25
2022-10-12T06:58:39.620Z,9.77
2022-10-12T07:01:10.406Z,9.52
2022-10-12T07:03:37.778Z,9.55
2022-10-12T07:06:15.065Z,12.20
2022-10-12T07:08:42.600Z,10.80
2022-10-12T07:11:12.774Z,6.90
2022-10-12T07:13:39.885Z,6.68
2022-10-12T07:16:07.949Z,5.00
2022-10-12T07:18:34.980Z,5.22
2022-10-12T07:21:03.022Z,4.72
2022-10-12T07:23:31.980Z,5.43
2022-10-12T07:25:58.918Z,5.25
2022-10-12T07:28:27.047Z,7.70
2022-10-12T07:30:54.184Z,6.53
2022-10-12T07:33:21.031Z,6.97
2022-10-12T07:36:22.123Z,7.93
2022-10-12T07:38:47.124Z,7.57
2022-10-12T07:41:15.110Z,6.80
2022-10-12T07:43:43.151Z,6.70
2022-10-12T07:46:10.650Z,7.38
2022-10-12T07:48:38.017Z,7.07
2022-10-12T07:51:10.030Z,7.78
2022-10-12T07:53:38.658Z,8.23
2022-10-12T07:56:15.051Z,9.65
2022-10-12T07:58:56.763Z,7.50
2022-10-12T08:01:26.613Z,8.75
2022-10-12T08:03:58.749Z,7.75
2022-10-12T08:06:31.202Z,8.13
2022-10-12T08:08:59.781Z,7.35
2022-10-12T08:11:27.670Z,6.75
2022-10-12T08:13:56.123Z,7.95
2022-10-12T08:16:23.986Z,8.02
2022-10-12T08:18:51.163Z,7.40
2022-10-12T08:21:18.474Z,8.02
2022-10-12T08:23:46.160Z,8.10
2022-10-12T08:26:14.687Z,8.40
2022-10-12T08:28:42.372Z,7.70
2022-10-12T08:31:12.741Z,11.63
2022-10-12T08:33:39.884Z,12.73
2022-10-12T08:36:08.249Z,8.43
2022-10-12T08:38:39.008Z,9.20
2022-10-12T08:41:36.847Z,8.23
2022-10-12T08:44:28.282Z,8.05
2022-10-12T08:46:58.229Z,8.07
2022-10-12T08:49:28.398Z,8.13
2022-10-12T08:51:57.822Z,8.73
2022-10-12T08:54:29.572Z,8.63
2022-10-12T08:56:57.993Z,8.30
2022-10-12T08:59:26.564Z,6.88
2022-10-12T09:02:02.290Z,8.02
2022-10-12T09:04:35.034Z,6.38
2022-10-12T09:07:17.067Z,7.47
2022-10-12T09:09:56.159Z,6.20
2022-10-12T09:12:50.785Z,6.88
2022-10-12T09:15:23.166Z,7.82
2022-10-12T09:17:55.229Z,7.68
2022-10-12T09:20:30.882Z,6.95
2022-10-12T09:23:21.594Z,7.60
2022-10-12T09:25:50.258Z,8.37
2022-10-12T09:28:33.660Z,6.70
2022-10-12T09:31:21.027Z,4.30
2022-10-12T09:33:54.167Z,4.00
2022-10-12T09:36:23.547Z,4.72
2022-10-12T09:38:51.186Z,3.90
2022-10-12T09:41:24.901Z,5.30
2022-10-12T09:43:56.826Z,3.17
2022-10-12T09:46:40.133Z,3.00
2022-10-12T09:49:07.181Z,2.80
2022-10-12T09:51:34.355Z,2.95
2022-10-12T09:54:03.805Z,2.90
2022-10-12T09:56:57.228Z,3.03
2022-10-12T09:59:29.486Z,2.50
2022-10-12T10:02:05.042Z,2.55
2022-10-12T10:04:32.291Z,3.10
2022-10-12T10:07:18.296Z,2.40
2022-10-12T10:09:46.087Z,2.17
2022-10-12T10:12:14.988Z,2.47
2022-10-12T10:14:45.701Z,2.10
2022-10-12T10:17:36.500Z,1.80
2022-10-12T10:20:06.231Z,1.50
2022-10-12T10:22:33.652Z,1.88
2022-10-12T10:25:01.275Z,1.50
2022-10-12T10:27:37.941Z,1.83
2022-10-12T10:30:29.941Z,1.70
2022-10-12T10:33:16.025Z,1.75
2022-10-12T10:35:56.578Z,1.80
2022-10-12T10:38:24.228Z,2.20
2022-10-12T10:40:52.693Z,1.83
2022-10-12T10:43:31.853Z,2.45
2022-10-12T10:46:02.693Z,3.17
2022-10-12T10:48:53.373Z,2.13
2022-10-12T10:51:20.508Z,2.60
2022-10-12T10:53:49.634Z,2.80
2022-10-12T10:56:26.727Z,3.00
2022-10-12T10:59:09.045Z,2.70
2022-10-12T11:01:46.314Z,1.70
2022-10-12T11:04:32.845Z,2.00
2022-10-12T11:07:17.080Z,1.80
2022-10-12T11:09:48.638Z,2.50
2022-10-12T11:12:30.326Z,2.03
2022-10-12T11:15:20.088Z,1.88
2022-10-12T11:17:50.908Z,2.40
2022-10-12T11:20:19.909Z,2.00
2022-10-12T11:23:23.396Z,2.08
2022-10-12T11:25:56.045Z,1.92
2022-10-12T11:28:28.517Z,2.30
2022-10-12T11:30:55.822Z,2.03
2022-10-12T11:33:29.291Z,2.35
2022-10-12T11:35:58.835Z,2.25
2022-10-12T11:38:51.356Z,2.17
2022-10-12T11:41:48.458Z,2.10
2022-10-12T11:44:25.352Z,1.80
2022-10-12T11:47:12.149Z,1.90
2022-10-12T11:49:52.073Z,2.28
2022-10-12T11:52:22.926Z,2.25
2022-10-12T11:55:08.720Z,2.10
2022-10-12T11:57:38.183Z,3.35
2022-10-12T12:00:18.392Z,3.00
2022-10-12T12:03:00.979Z,2.75
2022-10-12T12:05:32.630Z,2.55
2022-10-12T12:07:59.573Z,2.47
2022-10-12T12:10:35.218Z,2.25
2022-10-12T12:13:14.819Z,2.33
2022-10-12T12:15:52.352Z,2.30
2022-10-12T12:18:22.787Z,3.85
2022-10-12T12:20:49.539Z,3.60
2022-10-12T12:23:27.839Z,3.63
2022-10-12T12:26:14.639Z,3.03
2022-10-12T12:28:45.263Z,3.55
2022-10-12T12:31:26.831Z,4.30
2022-10-12T12:34:12.412Z,2.38
2022-10-12T12:36:44.914Z,2.92
2022-10-12T12:39:34.993Z,2.33
2022-10-12T12:42:04.881Z,2.42
2022-10-12T12:44:36.846Z,2.38
2022-10-12T12:47:08.593Z,2.00
2022-10-12T12:49:57.452Z,1.90
2022-10-12T12:52:24.346Z,3.15
2022-10-12T12:55:09.290Z,3.03
2022-10-12T12:57:36.266Z,2.42
2022-10-12T13:00:13.257Z,2.30
2022-10-12T13:03:01.427Z,2.45
2022-10-12T13:05:28.325Z,3.60
2022-10-12T13:08:23.401Z,2.40
2022-10-12T13:11:02.251Z,2.15
2022-10-12T13:13:47.549Z,2.45
2022-10-12T13:17:30.151Z,2.28
2022-10-12T13:19:23.602Z,1.90
2022-10-12T13:21:54.663Z,2.10
2022-10-12T13:24:30.437Z,1.98
2022-10-12T13:27:14.309Z,2.63
2022-10-12T13:29:48.989Z,1.92
2022-10-12T13:32:34.604Z,1.95
2022-10-12T13:35:10.491Z,1.90
2022-10-12T13:37:37.754Z,2.42
2022-10-12T13:40:05.212Z,2.00
2022-10-12T13:42:35.942Z,2.92
2022-10-12T13:45:07.996Z,1.95
2022-10-12T13:47:43.089Z,2.33
2022-10-12T13:50:20.722Z,1.95
2022-10-12T13:52:54.466Z,1.88
2022-10-12T13:55:26.484Z,2.30
2022-10-12T13:57:53.966Z,1.83
2022-10-12T14:00:25.665Z,2.80
2022-10-12T14:02:58.830Z,2.85
2022-10-12T14:05:28.164Z,2.85
2022-10-12T14:08:00.465Z,2.45
2022-10-12T14:10:36.330Z,3.42
2022-10-12T14:13:05.203Z,1.92
2022-10-12T14:15:39.052Z,3.65
2022-10-12T14:18:37.833Z,2.17
2022-10-12T14:21:18.442Z,2.72
2022-10-12T14:23:51.950Z,2.50
2022-10-12T14:26:34.327Z,2.83
2022-10-12T14:29:34.811Z,2.20
2022-10-12T14:32:26.486Z,2.45
2022-10-12T14:35:20.872Z,2.60
2022-10-12T14:37:48.983Z,2.53
2022-10-12T14:40:30.438Z,3.63
2022-10-12T14:45:46.879Z,2.97
2022-10-12T14:48:19.975Z,3.05
2022-10-12T14:50:47.013Z,2.78
2022-10-12T14:53:14.905Z,2.83
2022-10-12T14:55:43.154Z,2.25
2022-10-12T14:58:17.456Z,2.00
2022-10-12T15:00:45.130Z,2.95
2022-10-12T15:03:12.300Z,3.45
2022-10-12T15:05:41.882Z,2.65
2022-10-12T15:08:09.656Z,3.08
2022-10-12T15:10:37.482Z,3.03
2022-10-12T15:13:04.621Z,3.20
2022-10-12T15:15:39.508Z,8.00
2022-10-12T15:18:06.801Z,4.10
2022-10-12T15:20:34.677Z,3.67
2022-10-12T15:23:03.103Z,4.40
2022-10-12T15:25:45.236Z,3.40
2022-10-12T15:28:12.388Z,3.63
2022-10-12T15:30:47.475Z,4.47
2022-10-12T15:33:19.423Z,3.92
2022-10-12T15:35:46.187Z,4.30
2022-10-12T15:38:14.365Z,4.03
2022-10-12T15:40:43.859Z,4.30
2022-10-12T15:43:11.512Z,5.00
2022-10-12T15:45:39.763Z,5.57
2022-10-12T15:48:08.735Z,5.13
2022-10-12T15:50:44.712Z,6.15
2022-10-12T15:53:16.839Z,6.40
2022-10-12T15:55:43.715Z,5.75
2022-10-12T15:58:10.546Z,6.80
2022-10-12T16:00:37.506Z,7.05
2022-10-12T16:03:04.681Z,7.72
2022-10-12T16:05:35.589Z,6.50
2022-10-12T16:08:05.340Z,6.40
2022-10-12T16:10:37.134Z,6.53
2022-10-12T16:13:06.708Z,5.45
2022-10-12T16:15:35.723Z,6.07
2022-10-12T16:18:04.848Z,4.60
2022-10-12T16:20:34.512Z,4.00
2022-10-12T16:23:01.517Z,3.60
2022-10-12T16:25:34.663Z,3.38
2022-10-12T16:28:04.991Z,3.90
2022-10-12T16:30:32.458Z,4.28
2022-10-12T16:33:00.369Z,4.25
2022-10-12T16:35:27.515Z,5.22
2022-10-12T16:37:54.366Z,10.00
2022-10-12T16:40:21.398Z,8.98
2022-10-12T16:42:54.772Z,11.63
2022-10-12T16:45:23.771Z,13.25
2022-10-12T16:47:50.700Z,16.20
2022-10-12T16:50:19.141Z,19.15
2022-10-12T16:52:46.512Z,19.67
2022-10-12T16:55:14.353Z,19.30
2022-10-12T16:57:41.432Z,15.80
2022-10-12T17:00:11.769Z,15.38
2022-10-12T17:02:57.505Z,13.75
2022-10-12T17:05:25.040Z,14.30
2022-10-12T17:07:51.903Z,15.45
2022-10-12T17:10:18.804Z,15.60
2022-10-12T17:12:45.869Z,16.10
2022-10-12T17:15:12.658Z,13.80
2022-10-12T17:17:39.570Z,15.65
2022-10-12T17:20:06.941Z,15.15
2022-10-12T17:22:34.845Z,15.55
2022-10-12T17:25:01.919Z,15.43
2022-10-12T17:27:32.140Z,15.77
2022-10-12T17:29:59.654Z,14.27
2022-10-12T17:32:29.303Z,13.52
2022-10-12T17:34:56.438Z,13.80
2022-10-12T17:37:23.352Z,11.00
2022-10-12T17:39:50.496Z,10.57
2022-10-12T17:42:18.235Z,12.70
2022-10-12T17:44:45.557Z,12.43
2022-10-12T17:47:12.468Z,12.77
2022-10-12T17:49:42.951Z,13.52
2022-10-12T17:52:09.867Z,13.55
2022-10-12T17:54:36.830Z,11.38
2022-10-12T17:57:04.641Z,7.93
2022-10-12T17:59:31.852Z,6.90
2022-10-12T18:01:59.195Z,7.85
2022-10-12T18:04:26.112Z,5.80
2022-10-12T18:06:53.341Z,6.35
2022-10-12T18:09:20.207Z,5.07
2022-10-12T18:11:47.180Z,7.15
2022-10-12T18:14:14.294Z,8.20
2022-10-12T18:16:41.546Z,12.15
2022-10-12T18:19:11.395Z,10.10
2022-10-12T18:21:38.825Z,6.63
2022-10-12T18:24:16.025Z,6.63
2022-10-12T18:26:47.410Z,6.72
2022-10-12T18:29:18.048Z,6.25
2022-10-12T18:31:45.103Z,5.85
2022-10-12T18:34:11.989Z,6.35
2022-10-12T18:36:40.123Z,6.90
2022-10-12T18:39:07.192Z,8.13
2022-10-12T18:41:34.174Z,9.07
2022-10-12T18:44:02.584Z,11.38
2022-10-12T18:46:32.475Z,11.18
2022-10-12T18:49:02.910Z,8.77
2022-10-12T18:51:32.868Z,10.50
2022-10-12T18:54:00.611Z,12.55
2022-10-12T18:56:28.467Z,9.20
2022-10-12T18:58:57.341Z,8.32
2022-10-12T19:01:26.631Z,7.90
2022-10-12T19:03:55.521Z,7.88
2022-10-12T19:06:25.414Z,6.85
2022-10-12T19:08:55.003Z,6.38
2022-10-12T19:11:23.193Z,5.97
2022-10-12T19:14:02.255Z,6.57
2022-10-12T19:16:30.445Z,6.78
2022-10-12T19:18:59.963Z,6.55
2022-10-12T19:21:27.600Z,6.07
2022-10-12T19:23:54.871Z,6.20
2022-10-12T19:26:25.174Z,5.80
2022-10-12T19:28:54.676Z,5.22
2022-10-12T19:31:28.350Z,6.00
2022-10-12T19:34:00.754Z,5.00
2022-10-12T19:36:28.780Z,5.25
2022-10-12T19:39:00.733Z,5.20
2022-10-12T19:41:28.846Z,5.60
2022-10-12T19:43:57.583Z,5.65
2022-10-12T19:46:25.020Z,5.38
2022-10-12T19:48:53.937Z,5.78
2022-10-12T19:51:22.266Z,6.00
2022-10-12T19:53:54.124Z,6.18
2022-10-12T19:56:21.429Z,7.65
2022-10-12T19:58:50.344Z,7.20
2022-10-12T20:01:20.722Z,7.53
2022-10-12T20:03:50.066Z,7.43
2022-10-12T20:06:18.142Z,6.05
2022-10-12T20:08:46.043Z,6.55
2022-10-12T20:11:18.458Z,7.13
2022-10-12T20:13:48.369Z,6.93
2022-10-12T20:16:17.677Z,6.07
2022-10-12T20:18:45.059Z,7.30
2022-10-12T20:21:14.741Z,6.40
2022-10-12T20:23:43.218Z,6.50
2022-10-12T20:26:14.856Z,5.90
2022-10-12T20:28:41.831Z,6.63
2022-10-12T20:31:08.807Z,6.43
2022-10-12T20:33:37.328Z,6.57
2022-10-12T20:36:09.153Z,6.15
2022-10-12T20:38:37.668Z,6.60
2022-10-12T20:41:12.613Z,6.95
2022-10-12T20:43:40.621Z,6.60
2022-10-12T20:46:10.569Z,7.43
2022-10-12T20:48:39.994Z,6.03
2022-10-12T20:51:08.949Z,5.05
2022-10-12T20:53:36.503Z,5.85
2022-10-12T20:56:06.319Z,5.68
2022-10-12T20:58:33.591Z,7.30
2022-10-12T21:01:06.256Z,6.53
2022-10-12T21:03:33.817Z,6.28
2022-10-12T21:06:05.839Z,5.72
2022-10-12T21:08:33.255Z,5.75
2022-10-12T21:11:00.598Z,6.15
2022-10-12T21:13:30.972Z,5.25
2022-10-12T21:15:58.585Z,6.10
2022-10-12T21:18:26.705Z,5.88
2022-10-12T21:21:11.737Z,5.75
2022-10-12T21:23:42.878Z,5.68
2022-10-12T21:26:14.908Z,6.05
2022-10-12T21:28:41.974Z,6.03
2022-10-12T21:31:09.140Z,5.32
2022-10-12T21:33:37.965Z,5.32
2022-10-12T21:36:13.938Z,5.15
2022-10-12T21:38:42.236Z,5.70
2022-10-12T21:41:11.082Z,5.40
2022-10-12T21:43:39.846Z,4.90
2022-10-12T21:46:16.602Z,4.57
2022-10-12T21:48:43.483Z,5.70
2022-10-12T21:51:10.737Z,5.15
2022-10-12T21:53:38.478Z,4.93
2022-10-12T21:56:10.286Z,5.20
2022-10-12T21:58:37.367Z,4.90
2022-10-12T22:01:21.941Z,5.07
2022-10-12T22:03:56.377Z,4.72
2022-10-12T22:06:25.137Z,4.03
2022-10-12T22:08:55.200Z,4.35
2022-10-12T22:11:22.272Z,4.93
2022-10-12T22:13:49.301Z,4.72
2022-10-12T22:16:18.468Z,4.30
2022-10-12T22:18:46.029Z,3.95
2022-10-12T22:21:15.520Z,4.50
2022-10-12T22:23:43.614Z,4.65
2022-10-12T22:26:19.154Z,4.70
2022-10-12T22:28:53.346Z,5.40
2022-10-12T22:31:22.358Z,5.45
2022-10-12T22:33:49.306Z,5.80
2022-10-12T22:36:16.493Z,5.70
2022-10-12T22:38:43.887Z,5.65
2022-10-12T22:41:16.707Z,5.13
2022-10-12T22:43:50.488Z,4.97
2022-10-12T22:46:18.691Z,4.85
2022-10-12T22:48:46.189Z,4.53
2022-10-12T22:51:18.493Z,5.13
2022-10-12T22:53:45.663Z,4.97
2022-10-12T22:56:18.138Z,4.55
2022-10-12T22:58:48.503Z,5.55
2022-10-12T23:01:17.508Z,5.10
2022-10-12T23:03:45.506Z,4.70
2022-10-12T23:06:15.299Z,4.53
2022-10-12T23:08:42.765Z,4.03
2022-10-12T23:11:16.299Z,4.13
2022-10-12T23:13:43.609Z,5.05
2022-10-12T23:16:15.902Z,4.10
2022-10-12T23:18:43.243Z,4.65
2022-10-12T23:21:13.498Z,4.72
2022-10-12T23:23:41.412Z,4.28
2022-10-12T23:26:16.936Z,4.32
2022-10-12T23:28:44.791Z,4.30
2022-10-12T23:31:19.360Z,4.50
2022-10-12T23:33:46.584Z,4.65
2022-10-12T23:36:16.418Z,4.55
2022-10-12T23:38:44.798Z,4.20
2022-10-12T23:41:13.103Z,3.92
2022-10-12T23:43:40.515Z,4.18
2022-10-12T23:46:07.918Z,4.78
2022-10-12T23:48:35.074Z,4.43
2022-10-12T23:51:02.012Z,4.38
2022-10-12T23:53:29.060Z,4.55
2022-10-12T23:55:56.393Z,4.78
2022-10-12T23:58:23.329Z,5.18
